Terminal Aerodrome Forecast
Issued by NWS Paducah, KY

Home | Current Version | Previous Version | Text Only | Print | Product List | Glossary On
Versions: 1 2 3 4 5 6 7 8 9 10 11 12 13 14 15 16 17 18 19 20 21 22 23 24 25 26 27 28
000
FTUS43 KPAH 182053 AAB
TAFPAH
TAF AMD
KPAH 182053Z 1821/1918 33024G36KT P6SM OVC015
     FM190200 33017G27KT P6SM SCT060
     FM190600 33012KT P6SM SKC
     FM191300 33008KT P6SM SKC=

USA.gov is the U.S. government's official web portal to all federal, state and local government web resources and services.